Flight Track Log - Related Links

Times and Time Zones

All times are in EDT time to prevent confusion due to time zone crossing. See the SKW6330 flight status page for this flight to view local times or setup timezone preferences in your user account.

Time Position Orientation Groundspeed Altitude Reporting Facility
EDT Latitude Longitude Course Direction KTS MPH feet Rate Location/Type
Thu 07:22:09 PM 33.9500 -118.4667 331° Northwest 153 176 2,300  Level Southern California TRACON
Thu 07:22:42 PM 33.9661 -118.5003 300° West 165 190 3,300 1,705 Climbing Los Angeles Center
Thu 07:23:44 PM 33.9789 -118.5575 285° West 175 201 5,000 1,694 Climbing Los Angeles Center
Thu 07:24:46 PM 33.9908 -118.6169 284° West 181 208 6,800 968 Climbing Los Angeles Center
Thu 07:25:48 PM 34.0158 -118.6556 308° West 194 223 7,000 145 Climbing Los Angeles Center
Thu 07:26:50 PM 34.0858 -118.6253 20° North 218 251 7,100 629 Climbing Los Angeles Center
Thu 07:27:00 PM 34.1573 -118.5160 331° Northwest  Level FlightAware Approximate
Thu 07:27:52 PM 34.1414 -118.6289 357° North 214 246 8,300  Level Los Angeles Center
Thu 07:28:55 PM 34.1967 -118.6256 North 206 237 10,300 1,776 Climbing Los Angeles Center
Thu 07:29:57 PM 34.2581 -118.6383 350° North 193 222 12,000 871 Climbing Los Angeles Center
Thu 07:30:59 PM 34.3147 -118.6642 339° North 212 244 12,100  Climbing Los Angeles Center
Thu 07:32:01 PM 34.3808 -118.6903 342° North 242 278 12,000 339 Descending Los Angeles Center
Thu 07:33:03 PM 34.4467 -118.7183 341° North 251 289 12,800 968 Climbing Los Angeles Center
Thu 07:34:05 PM 34.5061 -118.7403 343° North 224 258 14,000 1,161 Climbing Los Angeles Center
Thu 07:35:07 PM 34.5631 -118.7639 341° North 216 249 15,200 1,161 Climbing Los Angeles Center
Thu 07:36:09 PM 34.6289 -118.7911 341° North 209 241 16,400 1,056 Climbing Los Angeles Center
Thu 07:37:12 PM 34.6828 -118.8139 341° North 207 238 17,400 768 Climbing Los Angeles Center
Thu 07:38:14 PM 34.7400 -118.8250 351° North 208 239 18,000 726 Climbing Los Angeles Center
Thu 07:39:16 PM 34.7989 -118.8336 353° North 210 242 18,900 823 Climbing Los Angeles Center
Thu 07:40:18 PM 34.8583 -118.8433 352° North 214 246 19,700 532 Climbing Los Angeles Center
Thu 07:41:20 PM 34.9192 -118.8531 353° North 216 249 20,000 145 Climbing Los Angeles Center
Thu 07:42:22 PM 34.9992 -118.8647 353° North 239 275 20,000  Level Los Angeles Center
Thu 07:43:24 PM 35.0631 -118.8769 351° North 235 270 20,000  Level Los Angeles Center
Thu 07:44:26 PM 35.1286 -118.8864 353° North 237 273 20,000  Level Los Angeles Center
Thu 07:45:28 PM 35.1939 -118.8986 351° North 239 275 20,000  Level Los Angeles Center
Thu 07:46:31 PM 35.2575 -118.9092 352° North 235 270 20,000  Level Los Angeles Center
Thu 07:47:33 PM 35.3339 -118.9222 352° North 232 267 20,000  Level Los Angeles Center
Thu 07:48:35 PM 35.3997 -118.9331 352° North 236 272 20,000  Level Los Angeles Center
Thu 07:49:37 PM 35.4636 -118.9444 352° North 234 269 20,000 -387 Level Los Angeles Center
Thu 07:50:39 PM 35.5283 -118.9558 352° North 234 269 19,200 -1,258 Descending Los Angeles Center
Thu 07:51:41 PM 35.6031 -118.9683 352° North 256 295 17,400 -1,773 Descending Los Angeles Center
Thu 07:52:07 PM 35.6303 -118.9725 353° North 248 285 16,600 -2,207 Descending Oakland Center
Thu 07:53:08 PM 35.7278 -118.9903 352° North 270 311 14,200 -1,328 Descending Oakland Center
Thu 07:54:09 PM 35.8053 -119.0031 352° North 279 321 13,900 -98 Descending Oakland Center
Thu 07:55:11 PM 35.8761 -119.0164 351° North 274 315 14,000 49 Climbing Oakland Center
Thu 07:56:12 PM 35.9408 -119.0342 347° North 260 299 14,000  Level Oakland Center
Thu 07:57:14 PM 36.0044 -119.0656 338° Northwest 250 288 14,000  Level Oakland Center
Thu 07:58:15 PM 36.0689 -119.0953 340° North 247 284 14,000  Level Oakland Center
Thu 07:59:17 PM 36.1325 -119.1269 338° Northwest 247 284 14,000  Level Oakland Center
Thu 08:00:18 PM 36.1972 -119.1569 339° North 247 284 14,000 -689 Level Oakland Center
Thu 08:01:19 PM 36.2792 -119.1939 340° North 263 303 12,600 -1,512 Descending Oakland Center
Thu 08:02:21 PM 36.3508 -119.2300 338° Northwest 279 321 10,900 -1,561 Descending Oakland Center
Thu 08:03:22 PM 36.4250 -119.2633 340° North 282 325 9,400 -1,377 Descending Oakland Center
Thu 08:04:23 PM 36.4906 -119.3069 332° Northwest 275 316 8,100 -1,122 Descending Oakland Center
Thu 08:05:25 PM 36.5411 -119.3775 312° West 275 316 7,100 -976 Descending Oakland Center
Thu 08:06:26 PM 36.5925 -119.4481 312° West 276 318 6,100 -885 Descending Oakland Center
Thu 08:07:27 PM 36.6417 -119.5186 311° West 272 313 5,300 -927 Descending Oakland Center
Thu 08:08:29 PM 36.6806 -119.5767 310° West 223 257 4,200 -1,220 Descending Oakland Center
Thu 08:09:30 PM 36.7206 -119.6258 315° West 155 178 2,800 -1,279 Descending Oakland Center
Thu 08:10:31 PM 36.7439 -119.6628 308° West 142 163 1,600 -1,073 Descending Oakland Center
Thu 08:11:33 PM 36.7678 -119.7053 305° West 141 162 600  Descending Oakland Center
Thu 08:12:34 PM 36.7933 -119.7497 306° West 158 182 1,600 732 Climbing Oakland Center
Thu 08:13:36 PM 36.8142 -119.7100 57° Northeast 190 219 2,100 197 Climbing Oakland Center
Thu 08:14:36 PM 36.7944 -119.6514 113° Southeast 185 213 2,000 -295 Descending Oakland Center
Thu 08:15:38 PM 36.7622 -119.6458 172° South 150 173 1,500 -585 Descending Oakland Center
Thu 08:16:39 PM 36.7564 -119.6861 260° West 141 162 800 -590 Descending Oakland Center
Thu 08:17:40 PM 36.7753 -119.7186 306° West 139 160 300 -492 Descending Oakland Center

Login

Don't have an account? Register now (free) for customized features, flight alerts, and more!